createdAt,value
2022-11-09T00:01:17.999Z,8.00
2022-11-09T00:04:05.926Z,5.13
2022-11-09T00:06:54.092Z,9.52
2022-11-09T00:09:42.774Z,3.03
2022-11-09T00:12:28.954Z,4.80
2022-11-09T00:15:15.213Z,7.95
2022-11-09T00:18:02.863Z,3.75
2022-11-09T00:20:49.078Z,4.25
2022-11-09T00:23:35.806Z,4.63
2022-11-09T00:26:22.014Z,4.60
2022-11-09T00:29:07.967Z,10.32
2022-11-09T00:31:54.575Z,5.93
2022-11-09T00:34:40.397Z,3.58
2022-11-09T00:37:27.031Z,2.80
2022-11-09T00:40:13.755Z,3.80
2022-11-09T00:42:59.817Z,2.65
2022-11-09T00:45:47.315Z,2.78
2022-11-09T00:48:33.994Z,8.02
2022-11-09T00:51:21.271Z,3.67
2022-11-09T00:54:08.328Z,3.85
2022-11-09T00:56:54.472Z,2.05
2022-11-09T00:59:40.504Z,2.60
2022-11-09T01:02:26.611Z,3.28
2022-11-09T01:05:13.007Z,4.88
2022-11-09T01:07:58.823Z,5.05
2022-11-09T01:10:46.009Z,1.80
2022-11-09T01:13:32.085Z,3.67
2022-11-09T01:16:20.968Z,3.20
2022-11-09T01:19:07.210Z,2.00
2022-11-09T01:21:53.286Z,2.60
2022-11-09T01:24:39.817Z,3.92
2022-11-09T01:27:25.528Z,2.22
2022-11-09T01:30:11.810Z,3.10
2022-11-09T01:32:57.597Z,2.40
2022-11-09T01:35:45.307Z,3.63
2022-11-09T01:38:31.803Z,2.78
2022-11-09T01:41:19.940Z,2.95
2022-11-09T01:44:16.841Z,3.22
2022-11-09T01:47:05.834Z,3.25
2022-11-09T01:49:52.697Z,2.80
2022-11-09T01:52:41.122Z,1.67
2022-11-09T01:55:27.382Z,2.58
2022-11-09T01:58:16.198Z,3.13
2022-11-09T02:01:20.867Z,3.40
2022-11-09T02:04:12.776Z,3.38
2022-11-09T02:06:59.801Z,1.83
2022-11-09T02:09:48.558Z,2.88
2022-11-09T02:12:35.143Z,2.50
2022-11-09T02:15:21.929Z,2.35
2022-11-09T02:18:07.782Z,2.58
2022-11-09T02:20:58.148Z,2.28
2022-11-09T02:23:45.853Z,2.58
2022-11-09T02:26:31.983Z,4.38
2022-11-09T02:29:23.727Z,1.80
2022-11-09T02:32:29.915Z,1.43
2022-11-09T02:35:17.450Z,1.50
2022-11-09T02:38:03.732Z,3.58
2022-11-09T02:40:51.621Z,2.65
2022-11-09T02:43:38.791Z,2.83
2022-11-09T02:46:32.037Z,3.15
2022-11-09T02:49:17.790Z,5.13
2022-11-09T02:52:04.008Z,3.38
2022-11-09T02:54:49.806Z,6.95
2022-11-09T02:57:36.281Z,2.35
2022-11-09T03:00:23.338Z,4.13
2022-11-09T03:03:10.252Z,4.13
2022-11-09T03:05:55.909Z,2.95
2022-11-09T03:08:42.655Z,3.95
2022-11-09T03:11:28.779Z,3.78
2022-11-09T03:14:15.716Z,3.33
2022-11-09T03:17:07.523Z,2.05
2022-11-09T03:19:55.228Z,2.28
2022-11-09T03:22:41.156Z,2.83
2022-11-09T03:25:28.216Z,2.33
2022-11-09T03:28:14.489Z,4.57
2022-11-09T03:31:00.421Z,4.43
2022-11-09T03:33:46.505Z,3.33
2022-11-09T03:36:33.644Z,3.65
2022-11-09T03:39:19.685Z,4.45
2022-11-09T03:42:06.828Z,3.97
2022-11-09T03:44:52.926Z,4.40
2022-11-09T03:47:42.858Z,2.00
2022-11-09T03:50:29.409Z,1.95
2022-11-09T03:53:15.238Z,3.60
2022-11-09T03:56:01.232Z,4.47
2022-11-09T03:58:47.380Z,1.92
2022-11-09T04:01:51.939Z,2.92
2022-11-09T04:04:38.237Z,2.83
2022-11-09T04:07:24.119Z,4.72
2022-11-09T04:10:10.384Z,2.22
2022-11-09T04:12:55.997Z,2.30
2022-11-09T04:15:42.297Z,3.25
2022-11-09T04:18:28.231Z,4.72
2022-11-09T04:21:14.476Z,3.65
2022-11-09T04:24:00.577Z,3.20
2022-11-09T04:26:49.724Z,2.97
2022-11-09T04:29:53.967Z,3.65
2022-11-09T04:32:40.101Z,3.65
2022-11-09T04:35:27.090Z,4.82
2022-11-09T04:38:14.031Z,4.07
2022-11-09T04:41:01.280Z,2.22
2022-11-09T04:43:47.454Z,1.95
2022-11-09T04:46:33.527Z,3.28
2022-11-09T04:49:19.495Z,3.03
2022-11-09T04:52:05.771Z,9.75
2022-11-09T04:54:51.747Z,4.05
2022-11-09T04:57:37.791Z,4.63
2022-11-09T05:00:24.070Z,2.72
2022-11-09T05:03:10.164Z,3.03
2022-11-09T05:05:56.300Z,2.90
2022-11-09T05:08:42.535Z,4.68
2022-11-09T05:11:28.829Z,3.13
2022-11-09T05:14:14.915Z,11.45
2022-11-09T05:17:01.023Z,3.20
2022-11-09T05:19:47.097Z,6.25
2022-11-09T05:22:51.268Z,5.50
2022-11-09T05:25:37.414Z,4.43
2022-11-09T05:28:23.532Z,4.35
2022-11-09T05:31:09.656Z,5.07
2022-11-09T05:33:55.564Z,3.47
2022-11-09T05:36:41.645Z,8.02
2022-11-09T05:39:27.730Z,6.22
2022-11-09T05:42:13.908Z,3.33
2022-11-09T05:45:21.027Z,9.20
2022-11-09T05:48:05.695Z,12.25
2022-11-09T05:50:51.803Z,4.25
2022-11-09T05:53:46.151Z,3.85
2022-11-09T05:56:32.944Z,4.10
2022-11-09T05:59:18.725Z,3.80
2022-11-09T06:02:04.365Z,4.50
2022-11-09T06:04:50.300Z,4.65
2022-11-09T06:07:36.464Z,4.82
2022-11-09T06:10:22.625Z,3.58
2022-11-09T06:13:08.801Z,5.38
2022-11-09T06:15:55.381Z,8.68
2022-11-09T06:18:41.127Z,5.85
2022-11-09T06:21:27.481Z,4.90
2022-11-09T06:24:13.636Z,6.13
2022-11-09T06:26:59.669Z,7.30
2022-11-09T06:29:45.786Z,6.47
2022-11-09T06:32:31.924Z,4.32
2022-11-09T06:35:18.034Z,5.90
2022-11-09T06:38:04.295Z,6.03
2022-11-09T06:40:51.346Z,31.02
2022-11-09T06:43:37.159Z,20.92
2022-11-09T06:46:22.809Z,23.77
2022-11-09T06:49:27.019Z,9.68
2022-11-09T06:52:13.133Z,32.92
2022-11-09T06:54:59.181Z,33.15
2022-11-09T06:57:45.395Z,23.33
2022-11-09T07:00:31.964Z,11.40
2022-11-09T07:03:19.650Z,6.65
2022-11-09T07:06:09.829Z,14.75
2022-11-09T07:08:56.563Z,14.73
2022-11-09T07:11:42.672Z,18.55
2022-11-09T07:14:28.748Z,20.80
2022-11-09T07:17:14.856Z,8.07
2022-11-09T07:20:00.978Z,8.57
2022-11-09T07:22:49.417Z,16.08
2022-11-09T07:25:36.038Z,16.50
2022-11-09T07:28:21.888Z,9.57
2022-11-09T07:31:08.511Z,20.25
2022-11-09T07:33:54.556Z,13.15
2022-11-09T07:36:40.232Z,24.00
2022-11-09T07:39:26.275Z,14.38
2022-11-09T07:42:12.661Z,21.00
2022-11-09T07:45:00.426Z,5.60
2022-11-09T07:47:46.361Z,14.80
2022-11-09T07:50:33.171Z,15.38
2022-11-09T07:53:19.581Z,8.43
2022-11-09T07:56:05.830Z,49.47
2022-11-09T07:58:51.989Z,22.70
2022-11-09T08:01:38.245Z,17.17
2022-11-09T08:04:24.348Z,16.58
2022-11-09T08:07:10.608Z,23.77
2022-11-09T08:10:15.365Z,19.08
2022-11-09T08:13:12.553Z,19.45
2022-11-09T08:16:17.231Z,19.98
2022-11-09T08:19:03.854Z,24.15
2022-11-09T08:21:49.841Z,24.08
2022-11-09T08:24:35.725Z,24.08
2022-11-09T08:27:23.083Z,25.33
2022-11-09T08:30:14.062Z,32.50
2022-11-09T08:33:00.612Z,31.58
2022-11-09T08:35:50.521Z,29.40
2022-11-09T08:41:25.057Z,20.88
2022-11-09T08:44:10.845Z,22.83
2022-11-09T08:46:57.527Z,22.48
2022-11-09T08:49:52.518Z,29.25
2022-11-09T08:52:38.908Z,30.25
2022-11-09T08:55:27.826Z,22.40
2022-11-09T08:58:13.840Z,22.55
2022-11-09T09:00:59.981Z,26.48
2022-11-09T09:03:46.876Z,23.48
2022-11-09T09:06:32.822Z,25.10
2022-11-09T09:09:40.864Z,21.17
2022-11-09T09:12:26.877Z,20.67
2022-11-09T09:15:12.885Z,17.48
2022-11-09T09:17:59.728Z,19.70
2022-11-09T09:20:45.959Z,21.17
2022-11-09T09:23:32.072Z,15.18
2022-11-09T09:26:18.174Z,22.17
2022-11-09T09:29:04.358Z,18.25
2022-11-09T09:31:50.447Z,14.18
2022-11-09T09:34:36.718Z,15.50
2022-11-09T09:37:22.708Z,27.70
2022-11-09T09:40:20.635Z,21.27
2022-11-09T09:43:06.868Z,16.35
2022-11-09T09:45:53.752Z,24.17
2022-11-09T09:48:43.261Z,24.48
2022-11-09T09:51:31.897Z,32.55
2022-11-09T09:54:17.799Z,30.17
2022-11-09T09:57:04.180Z,23.35
2022-11-09T09:59:51.810Z,13.57
2022-11-09T10:02:37.761Z,13.82
2022-11-09T10:05:28.839Z,16.35
2022-11-09T10:08:27.777Z,15.07
2022-11-09T10:11:33.896Z,13.00
2022-11-09T10:14:29.067Z,16.83
2022-11-09T10:17:30.495Z,17.73
2022-11-09T10:20:41.304Z,14.52
2022-11-09T10:23:27.249Z,16.30
2022-11-09T10:26:16.475Z,14.55
2022-11-09T10:29:16.214Z,17.65
2022-11-09T10:32:16.314Z,21.80
2022-11-09T10:35:08.900Z,19.48
2022-11-09T10:37:55.316Z,19.40
2022-11-09T10:40:45.646Z,15.32
2022-11-09T10:43:50.162Z,14.40
2022-11-09T10:47:05.662Z,15.90
2022-11-09T10:50:27.913Z,15.18
2022-11-09T10:53:33.650Z,16.63
2022-11-09T10:57:04.989Z,16.17
2022-11-09T11:00:18.292Z,15.90
2022-11-09T11:03:24.793Z,15.30
2022-11-09T11:06:31.587Z,16.70
2022-11-09T11:09:38.616Z,15.93
2022-11-09T11:12:44.977Z,15.30
2022-11-09T11:15:49.633Z,15.43
2022-11-09T11:18:55.045Z,17.05
2022-11-09T11:22:24.017Z,15.85
2022-11-09T11:25:28.473Z,17.40
2022-11-09T11:28:48.861Z,16.02
2022-11-09T11:31:53.636Z,14.50
2022-11-09T11:35:02.204Z,18.42
2022-11-09T11:38:14.512Z,16.77
2022-11-09T11:41:29.025Z,16.45
2022-11-09T11:44:59.441Z,20.48
2022-11-09T11:49:07.026Z,15.57
2022-11-09T11:52:15.141Z,13.93
2022-11-09T11:55:20.099Z,14.27
2022-11-09T11:58:27.640Z,14.48
2022-11-09T12:01:35.841Z,15.00
2022-11-09T12:04:48.400Z,14.32
2022-11-09T12:08:00.608Z,14.65
2022-11-09T12:11:14.476Z,14.55
2022-11-09T12:14:33.346Z,14.48
2022-11-09T12:18:08.993Z,13.52
2022-11-09T12:21:31.295Z,14.48
2022-11-09T12:25:14.398Z,14.35
2022-11-09T12:28:39.004Z,13.18
2022-11-09T12:31:43.593Z,14.35
2022-11-09T12:34:57.094Z,14.40
2022-11-09T12:38:10.431Z,17.00
2022-11-09T12:41:21.306Z,17.95
2022-11-09T12:44:33.703Z,14.95
2022-11-09T12:47:43.570Z,18.80
2022-11-09T12:50:48.932Z,15.80
2022-11-09T12:53:55.494Z,13.75
2022-11-09T12:57:02.690Z,14.75
2022-11-09T13:00:29.643Z,16.15
2022-11-09T13:03:36.814Z,14.77
2022-11-09T13:06:42.477Z,16.63
2022-11-09T13:09:53.285Z,16.83
2022-11-09T13:13:14.991Z,14.30
2022-11-09T13:16:19.519Z,16.83
2022-11-09T13:19:37.613Z,15.05
2022-11-09T13:22:42.202Z,14.95
2022-11-09T13:25:50.978Z,25.67
2022-11-09T13:29:14.554Z,19.63
2022-11-09T13:32:19.357Z,33.58
2022-11-09T13:35:42.104Z,21.77
2022-11-09T13:39:09.533Z,18.42
2022-11-09T13:42:32.937Z,24.83
2022-11-09T13:45:46.301Z,22.25
2022-11-09T13:48:54.291Z,16.83
2022-11-09T13:51:59.126Z,16.33
2022-11-09T13:55:03.870Z,17.17
2022-11-09T13:58:21.213Z,19.80
2022-11-09T14:01:26.628Z,22.55
2022-11-09T14:04:38.844Z,21.67
2022-11-09T14:07:43.418Z,32.80
2022-11-09T14:11:01.687Z,24.75
2022-11-09T14:14:10.014Z,23.85
2022-11-09T14:17:17.935Z,19.17
2022-11-09T14:20:23.058Z,20.17
2022-11-09T14:23:29.710Z,20.75
2022-11-09T14:26:34.953Z,19.38
2022-11-09T14:29:54.507Z,18.73
2022-11-09T14:32:59.316Z,25.75
2022-11-09T14:36:05.322Z,27.23
2022-11-09T14:39:25.154Z,24.33
2022-11-09T14:42:29.694Z,22.90
2022-11-09T14:45:34.074Z,21.80
2022-11-09T14:48:42.042Z,22.65
2022-11-09T14:51:49.713Z,25.33
2022-11-09T14:54:54.417Z,25.23
2022-11-09T14:58:00.562Z,25.27
2022-11-09T15:01:08.322Z,24.17
2022-11-09T15:04:13.844Z,24.98
2022-11-09T15:07:20.735Z,28.65
2022-11-09T15:10:29.747Z,31.23
2022-11-09T15:13:34.171Z,29.73
2022-11-09T15:16:39.365Z,47.22
2022-11-09T15:19:54.619Z,61.13
2022-11-09T15:23:00.600Z,36.88
2022-11-09T15:26:04.996Z,34.38
2022-11-09T15:29:28.313Z,30.00
2022-11-09T15:32:38.489Z,22.13
2022-11-09T15:35:50.664Z,21.90
2022-11-09T15:38:59.580Z,20.00
2022-11-09T15:42:04.252Z,20.35
2022-11-09T15:45:13.056Z,23.45
2022-11-09T15:48:17.750Z,25.75
2022-11-09T15:51:22.493Z,29.98
2022-11-09T15:54:27.508Z,29.67
2022-11-09T15:57:32.213Z,27.75
2022-11-09T16:00:36.657Z,16.55
2022-11-09T16:03:41.783Z,29.20
2022-11-09T16:06:47.054Z,29.65
2022-11-09T16:09:51.885Z,33.78
2022-11-09T16:12:57.066Z,32.13
2022-11-09T16:16:02.047Z,40.28
2022-11-09T16:19:06.762Z,53.47
2022-11-09T16:22:12.121Z,44.72
2022-11-09T16:25:19.142Z,32.20
2022-11-09T16:28:24.178Z,31.95
2022-11-09T16:31:50.839Z,17.77
2022-11-09T16:35:15.341Z,20.10
2022-11-09T16:38:18.099Z,18.35
2022-11-09T16:41:23.921Z,29.10
2022-11-09T16:44:34.407Z,16.52
2022-11-09T16:47:45.775Z,32.20
2022-11-09T16:50:53.585Z,34.88
2022-11-09T16:54:01.389Z,38.15
2022-11-09T16:57:06.131Z,34.63
2022-11-09T17:00:13.607Z,43.10
2022-11-09T17:03:18.790Z,39.42
2022-11-09T17:06:23.424Z,39.13
2022-11-09T17:09:28.233Z,35.97
2022-11-09T17:12:32.576Z,33.35
2022-11-09T17:15:41.780Z,29.13
2022-11-09T17:18:46.235Z,26.20
2022-11-09T17:21:51.363Z,27.23
2022-11-09T17:24:56.189Z,34.05
2022-11-09T17:28:08.416Z,26.10
2022-11-09T17:31:20.310Z,22.25
2022-11-09T17:37:56.288Z,26.10
2022-11-09T17:41:02.475Z,22.05
2022-11-09T17:44:07.236Z,12.60
2022-11-09T17:47:12.173Z,22.38
2022-11-09T17:50:19.225Z,15.65
2022-11-09T17:53:23.674Z,20.15
2022-11-09T17:56:28.967Z,26.90
2022-11-09T17:59:34.082Z,21.67
2022-11-09T18:02:42.095Z,17.13
2022-11-09T18:05:47.153Z,26.50
2022-11-09T18:09:16.459Z,30.52
2022-11-09T18:12:23.949Z,10.05
2022-11-09T18:15:31.987Z,24.58
2022-11-09T18:18:36.480Z,10.05
2022-11-09T18:21:41.748Z,9.75
2022-11-09T18:24:46.589Z,20.10
2022-11-09T18:27:52.469Z,19.60
2022-11-09T18:31:01.133Z,25.77
2022-11-09T18:34:05.841Z,7.20
2022-11-09T18:37:10.468Z,26.33
2022-11-09T18:40:16.208Z,18.08
2022-11-09T18:43:31.915Z,23.27
2022-11-09T18:46:36.559Z,17.50
2022-11-09T18:49:41.257Z,13.63
2022-11-09T18:52:48.951Z,10.13
2022-11-09T18:56:02.214Z,25.10
2022-11-09T18:59:12.455Z,11.35
2022-11-09T19:02:20.451Z,24.20
2022-11-09T19:05:25.349Z,26.20
2022-11-09T19:08:51.426Z,24.27
2022-11-09T19:11:57.186Z,8.40
2022-11-09T19:15:02.245Z,10.32
2022-11-09T19:18:07.608Z,24.55
2022-11-09T19:21:23.378Z,12.68
2022-11-09T19:24:29.933Z,16.77
2022-11-09T19:27:35.171Z,10.82
2022-11-09T19:30:39.781Z,17.45
2022-11-09T19:33:44.176Z,23.23
2022-11-09T19:36:48.865Z,20.33
2022-11-09T19:39:53.557Z,23.27
2022-11-09T19:42:58.323Z,35.08
2022-11-09T19:46:08.598Z,53.15
2022-11-09T19:49:13.472Z,13.40
2022-11-09T19:52:18.773Z,15.13
2022-11-09T19:55:23.611Z,40.72
2022-11-09T19:58:27.876Z,26.30
2022-11-09T20:01:33.221Z,35.72
2022-11-09T20:04:38.011Z,10.05
2022-11-09T20:07:43.715Z,10.30
2022-11-09T20:10:48.670Z,29.00
2022-11-09T20:13:53.860Z,8.25
2022-11-09T20:17:03.185Z,7.10
2022-11-09T20:20:23.861Z,8.00
2022-11-09T20:23:31.492Z,10.23
2022-11-09T20:26:36.321Z,8.48
2022-11-09T20:29:41.293Z,22.17
2022-11-09T20:33:18.803Z,13.38
2022-11-09T20:36:23.759Z,11.65
2022-11-09T20:39:28.284Z,11.65
2022-11-09T20:42:35.457Z,10.07
2022-11-09T20:46:13.832Z,9.27
2022-11-09T20:49:20.081Z,9.55
2022-11-09T20:52:25.974Z,6.72
2022-11-09T20:55:30.768Z,5.90
2022-11-09T20:58:35.387Z,8.85
2022-11-09T21:01:43.063Z,24.25
2022-11-09T21:04:49.290Z,11.15
2022-11-09T21:07:53.966Z,19.05
2022-11-09T21:11:02.757Z,11.73
2022-11-09T21:14:07.736Z,5.68
2022-11-09T21:17:12.818Z,8.82
2022-11-09T21:20:17.758Z,2.75
2022-11-09T21:23:22.944Z,8.07
2022-11-09T21:26:47.096Z,5.55
2022-11-09T21:29:51.839Z,7.60
2022-11-09T21:32:56.601Z,13.48
2022-11-09T21:36:07.941Z,4.75
2022-11-09T21:39:12.513Z,8.40
2022-11-09T21:42:17.753Z,7.22
2022-11-09T21:45:26.227Z,5.38
2022-11-09T21:49:01.327Z,8.82
2022-11-09T21:52:06.699Z,21.60
2022-11-09T21:55:15.126Z,10.30
2022-11-09T21:58:19.868Z,8.15
2022-11-09T22:01:25.568Z,8.25
2022-11-09T22:04:32.242Z,10.77
2022-11-09T22:07:36.889Z,7.70
2022-11-09T22:10:41.728Z,13.23
2022-11-09T22:14:04.926Z,14.15
2022-11-09T22:17:09.722Z,19.90
2022-11-09T22:20:33.347Z,10.52
2022-11-09T22:23:38.332Z,9.00
2022-11-09T22:26:45.296Z,7.65
2022-11-09T22:29:50.411Z,8.13
2022-11-09T22:32:55.067Z,20.95
2022-11-09T22:36:00.712Z,8.60
2022-11-09T22:39:05.162Z,10.52
2022-11-09T22:42:09.838Z,7.75
2022-11-09T22:45:15.016Z,11.27
2022-11-09T22:48:19.555Z,5.55
2022-11-09T22:51:24.760Z,6.47
2022-11-09T22:54:29.320Z,7.32
2022-11-09T22:57:34.219Z,6.25
2022-11-09T23:00:39.463Z,6.40
2022-11-09T23:03:44.187Z,4.43
2022-11-09T23:06:49.593Z,5.97
2022-11-09T23:09:53.928Z,12.57
2022-11-09T23:13:01.620Z,6.07
2022-11-09T23:16:07.682Z,6.10
2022-11-09T23:19:14.116Z,4.65
2022-11-09T23:22:21.347Z,17.33
2022-11-09T23:25:54.171Z,12.77
2022-11-09T23:28:59.248Z,7.38
2022-11-09T23:32:04.461Z,24.83
2022-11-09T23:35:09.149Z,6.88
2022-11-09T23:38:13.529Z,5.72
2022-11-09T23:41:18.703Z,4.55
2022-11-09T23:44:23.442Z,3.85
2022-11-09T23:47:28.293Z,4.78
2022-11-09T23:50:33.498Z,3.78
2022-11-09T23:53:38.706Z,4.85
2022-11-09T23:56:43.091Z,6.22
2022-11-09T23:59:47.712Z,3.88
